createdAt,value
2022-10-10T00:02:30.626Z,100.00
2022-10-10T00:05:43.994Z,100.00
2022-10-10T00:08:55.913Z,100.00
2022-10-10T00:12:08.156Z,100.00
2022-10-10T00:15:21.999Z,100.00
2022-10-10T00:18:34.103Z,100.00
2022-10-10T00:21:46.016Z,100.00
2022-10-10T00:24:57.917Z,100.00
2022-10-10T00:28:10.681Z,100.00
2022-10-10T00:31:23.574Z,100.00
2022-10-10T00:34:35.726Z,100.00
2022-10-10T00:37:47.651Z,100.00
2022-10-10T00:41:01.965Z,100.00
2022-10-10T00:44:17.184Z,100.00
2022-10-10T00:47:29.039Z,100.00
2022-10-10T00:50:45.908Z,100.00
2022-10-10T00:54:02.923Z,100.00
2022-10-10T00:57:18.335Z,100.00
2022-10-10T01:00:30.040Z,100.00
2022-10-10T01:03:42.051Z,100.00
2022-10-10T01:06:53.792Z,100.00
2022-10-10T01:10:09.915Z,100.00
2022-10-10T01:13:29.689Z,100.00
2022-10-10T01:16:48.436Z,100.00
2022-10-10T01:20:30.964Z,100.00
2022-10-10T01:24:25.448Z,100.00
2022-10-10T01:27:41.788Z,100.00
2022-10-10T01:30:54.841Z,100.00
2022-10-10T01:34:12.388Z,100.00
2022-10-10T01:37:29.324Z,100.00
2022-10-10T01:40:46.265Z,100.00
2022-10-10T01:44:03.828Z,100.00
2022-10-10T01:47:18.224Z,100.00
2022-10-10T01:50:32.858Z,100.00
2022-10-10T01:53:53.854Z,100.00
2022-10-10T01:57:14.260Z,100.00
2022-10-10T02:00:26.858Z,100.00
2022-10-10T02:03:43.639Z,100.00
2022-10-10T02:07:01.686Z,100.00
2022-10-10T02:10:17.819Z,100.00
2022-10-10T02:13:34.394Z,100.00
2022-10-10T02:16:50.858Z,100.00
2022-10-10T02:20:05.371Z,100.00
2022-10-10T02:23:21.332Z,100.00
2022-10-10T02:26:36.789Z,100.00
2022-10-10T02:29:51.268Z,100.00
2022-10-10T02:33:07.172Z,100.00
2022-10-10T02:36:20.605Z,100.00
2022-10-10T02:39:37.770Z,100.00
2022-10-10T02:42:48.327Z,100.00
2022-10-10T02:46:00.724Z,100.00
2022-10-10T02:49:15.770Z,100.00
2022-10-10T02:52:29.143Z,100.00
2022-10-10T02:55:40.988Z,100.00
2022-10-10T02:58:52.827Z,100.00
2022-10-10T03:02:04.905Z,100.00
2022-10-10T03:05:16.823Z,100.00
2022-10-10T03:08:28.580Z,100.00
2022-10-10T03:11:41.282Z,100.00
2022-10-10T03:14:53.347Z,100.00
2022-10-10T03:18:05.344Z,100.00
2022-10-10T03:21:17.114Z,100.00
2022-10-10T03:24:28.962Z,100.00
2022-10-10T03:27:41.550Z,100.00
2022-10-10T03:30:54.173Z,100.00
2022-10-10T03:34:06.687Z,100.00
2022-10-10T03:37:18.918Z,100.00
2022-10-10T03:40:32.188Z,100.00
2022-10-10T03:43:43.983Z,100.00
2022-10-10T03:46:55.713Z,100.00
2022-10-10T03:50:07.821Z,100.00
2022-10-10T03:53:19.702Z,100.00
2022-10-10T03:56:31.593Z,100.00
2022-10-10T03:59:43.749Z,100.00
2022-10-10T04:02:55.836Z,100.00
2022-10-10T04:06:08.037Z,100.00
2022-10-10T04:09:19.850Z,100.00
2022-10-10T04:12:31.806Z,100.00
2022-10-10T04:15:43.594Z,100.00
2022-10-10T04:18:55.546Z,100.00
2022-10-10T04:22:10.927Z,100.00
2022-10-10T04:25:21.370Z,100.00
2022-10-10T04:28:33.958Z,100.00
2022-10-10T04:31:45.967Z,100.00
2022-10-10T04:34:57.981Z,100.00
2022-10-10T04:38:09.947Z,100.00
2022-10-10T04:41:21.909Z,100.00
2022-10-10T04:44:34.061Z,100.00
2022-10-10T04:50:46.101Z,100.00
2022-10-10T04:53:58.131Z,100.00
2022-10-10T04:57:10.554Z,100.00
2022-10-10T05:00:23.182Z,100.00
2022-10-10T05:03:35.202Z,100.00
2022-10-10T05:06:47.202Z,100.00
2022-10-10T05:09:58.975Z,100.00
2022-10-10T05:13:11.737Z,100.00
2022-10-10T05:16:23.770Z,100.00
2022-10-10T05:19:35.388Z,100.00
2022-10-10T05:22:47.176Z,100.00
2022-10-10T05:25:59.001Z,100.00
2022-10-10T05:29:10.700Z,100.00
2022-10-10T05:32:22.651Z,100.00
2022-10-10T05:35:35.304Z,100.00
2022-10-10T05:38:47.727Z,100.00
2022-10-10T05:41:59.670Z,100.00
2022-10-10T05:45:13.562Z,100.00
2022-10-10T05:48:25.548Z,100.00
2022-10-10T05:51:37.417Z,100.00
2022-10-10T05:54:49.563Z,100.00
2022-10-10T05:58:01.870Z,100.00
2022-10-10T06:01:15.039Z,100.00
2022-10-10T06:04:27.231Z,100.00
2022-10-10T06:07:59.888Z,100.00
2022-10-10T06:10:54.183Z,100.00
2022-10-10T06:14:05.980Z,100.00
2022-10-10T06:17:17.805Z,100.00
2022-10-10T06:20:29.646Z,100.00
2022-10-10T06:23:43.278Z,100.00
2022-10-10T06:26:55.103Z,100.00
2022-10-10T06:30:06.862Z,100.00
2022-10-10T06:33:19.433Z,100.00
2022-10-10T06:36:31.244Z,97.42
2022-10-10T06:39:43.124Z,96.18
2022-10-10T06:42:54.950Z,96.30
2022-10-10T06:46:07.770Z,93.25
2022-10-10T06:49:19.545Z,91.29
2022-10-10T06:52:31.355Z,90.63
2022-10-10T06:55:43.179Z,87.73
2022-10-10T06:58:55.325Z,85.85
2022-10-10T07:02:09.688Z,84.22
2022-10-10T07:05:24.958Z,84.91
2022-10-10T07:08:37.078Z,83.90
2022-10-10T07:11:51.116Z,83.29
2022-10-10T07:15:04.139Z,84.02
2022-10-10T07:18:16.486Z,85.43
2022-10-10T07:21:28.155Z,86.79
2022-10-10T07:24:51.355Z,89.62
2022-10-10T07:28:03.174Z,91.94
2022-10-10T07:31:16.865Z,94.38
2022-10-10T07:34:28.763Z,96.71
2022-10-10T07:37:40.442Z,97.01
2022-10-10T07:40:52.304Z,99.76
2022-10-10T07:44:04.628Z,100.00
2022-10-10T07:47:16.660Z,100.00
2022-10-10T07:50:28.438Z,100.00
2022-10-10T07:53:40.853Z,100.00
2022-10-10T07:56:54.672Z,100.00
2022-10-10T08:00:06.850Z,100.00
2022-10-10T08:03:20.547Z,100.00
2022-10-10T08:06:32.375Z,100.00
2022-10-10T08:09:44.289Z,100.00
2022-10-10T08:12:55.991Z,98.79
2022-10-10T08:16:08.999Z,97.09
2022-10-10T08:19:20.891Z,92.49
2022-10-10T08:22:40.192Z,86.15
2022-10-10T08:25:59.411Z,82.49
2022-10-10T08:29:11.391Z,79.54
2022-10-10T08:32:25.456Z,76.06
2022-10-10T08:35:45.642Z,73.85
2022-10-10T08:39:01.746Z,71.17
2022-10-10T08:42:24.060Z,68.58
2022-10-10T08:45:38.178Z,68.32
2022-10-10T08:48:57.360Z,67.16
2022-10-10T08:52:22.908Z,65.51
2022-10-10T08:55:40.062Z,63.48
2022-10-10T08:59:03.220Z,61.15
2022-10-10T09:03:03.157Z,61.42
2022-10-10T09:06:24.276Z,60.83
2022-10-10T09:09:42.596Z,60.16
2022-10-10T09:13:02.417Z,59.03
2022-10-10T09:16:24.191Z,59.87
2022-10-10T09:19:50.776Z,59.92
2022-10-10T09:23:16.103Z,59.25
2022-10-10T09:26:33.092Z,59.74
2022-10-10T09:29:51.596Z,62.41
2022-10-10T09:33:10.701Z,62.53
2022-10-10T09:36:30.357Z,61.35
2022-10-10T09:39:54.610Z,61.56
2022-10-10T09:43:19.697Z,61.80
2022-10-10T09:46:34.762Z,60.32
2022-10-10T09:49:47.041Z,61.29
2022-10-10T09:53:01.244Z,64.01
2022-10-10T09:56:28.571Z,63.15
2022-10-10T10:00:06.193Z,63.27
2022-10-10T10:03:23.825Z,60.03
2022-10-10T10:10:52.859Z,60.21
2022-10-10T10:17:45.950Z,60.07
2022-10-10T10:21:02.952Z,58.49
2022-10-10T10:24:36.497Z,58.94
2022-10-10T10:31:59.402Z,55.76
2022-10-10T10:35:31.590Z,55.92
2022-10-10T10:39:05.294Z,56.24
2022-10-10T10:42:41.314Z,54.79
2022-10-10T10:46:01.493Z,55.77
2022-10-10T10:49:35.869Z,52.25
2022-10-10T10:53:15.408Z,52.55
2022-10-10T11:00:41.305Z,52.69
2022-10-10T11:05:18.502Z,53.09
2022-10-10T11:07:20.453Z,53.22
2022-10-10T11:10:39.060Z,53.58
2022-10-10T11:13:57.941Z,53.27
2022-10-10T11:17:23.755Z,53.48
2022-10-10T11:20:43.108Z,53.66
2022-10-10T11:24:14.883Z,51.13
2022-10-10T11:27:38.725Z,51.69
2022-10-10T11:34:46.400Z,52.78
2022-10-10T11:38:05.041Z,50.29
2022-10-10T11:41:31.551Z,51.28
2022-10-10T11:45:01.664Z,51.62
2022-10-10T11:48:25.202Z,53.08
2022-10-10T11:51:49.667Z,53.77
2022-10-10T11:55:11.610Z,52.30
2022-10-10T11:58:35.566Z,51.20
2022-10-10T12:02:25.865Z,53.47
2022-10-10T12:05:40.448Z,54.09
2022-10-10T12:09:01.555Z,53.81
2022-10-10T12:12:35.474Z,54.11
2022-10-10T12:15:50.709Z,55.45
2022-10-10T12:19:20.317Z,53.96
2022-10-10T12:22:45.003Z,54.89
2022-10-10T12:25:59.948Z,54.29
2022-10-10T12:29:17.878Z,54.32
2022-10-10T12:32:55.220Z,54.38
2022-10-10T12:36:49.093Z,55.10
2022-10-10T12:40:27.228Z,55.24
2022-10-10T12:43:47.277Z,55.94
2022-10-10T12:48:06.731Z,57.81
2022-10-10T12:51:31.851Z,55.39
2022-10-10T12:55:06.534Z,55.19
2022-10-10T12:58:27.103Z,55.08
2022-10-10T13:01:43.664Z,54.94
2022-10-10T13:04:58.741Z,55.71
2022-10-10T13:08:19.794Z,55.52
2022-10-10T13:11:32.020Z,56.30
2022-10-10T13:14:49.806Z,57.56
2022-10-10T13:18:01.668Z,55.05
2022-10-10T13:21:45.607Z,55.17
2022-10-10T13:25:01.316Z,55.23
2022-10-10T13:28:23.264Z,56.81
2022-10-10T13:31:42.393Z,55.86
2022-10-10T13:35:01.198Z,56.11
2022-10-10T13:38:14.209Z,56.71
2022-10-10T13:41:27.024Z,55.70
2022-10-10T13:44:55.426Z,56.16
2022-10-10T13:48:31.794Z,55.90
2022-10-10T13:51:54.018Z,57.87
2022-10-10T13:55:24.686Z,56.81
2022-10-10T13:58:44.008Z,57.20
2022-10-10T14:02:04.564Z,58.90
2022-10-10T14:05:26.856Z,58.89
2022-10-10T14:08:51.700Z,58.52
2022-10-10T14:12:26.002Z,60.58
2022-10-10T14:15:49.888Z,60.85
2022-10-10T14:19:01.784Z,59.51
2022-10-10T14:22:14.043Z,60.21
2022-10-10T14:25:34.412Z,60.12
2022-10-10T14:29:00.265Z,59.84
2022-10-10T14:32:12.694Z,60.30
2022-10-10T14:35:24.654Z,59.69
2022-10-10T14:38:40.831Z,61.70
2022-10-10T14:41:53.623Z,61.96
2022-10-10T14:45:05.429Z,62.93
2022-10-10T14:48:18.660Z,64.39
2022-10-10T14:51:43.481Z,65.86
2022-10-10T14:54:55.368Z,65.33
2022-10-10T14:58:14.545Z,66.50
2022-10-10T15:01:37.096Z,67.09
2022-10-10T15:04:59.758Z,68.21
2022-10-10T15:08:23.535Z,69.35
2022-10-10T15:11:35.432Z,71.29
2022-10-10T15:14:59.108Z,71.74
2022-10-10T15:18:52.725Z,72.78
2022-10-10T15:21:37.964Z,74.07
2022-10-10T15:28:43.592Z,75.55
2022-10-10T15:31:58.716Z,78.62
2022-10-10T15:35:23.422Z,78.81
2022-10-10T15:38:37.295Z,80.01
2022-10-10T15:41:49.089Z,78.95
2022-10-10T15:45:00.928Z,80.39
2022-10-10T15:48:14.152Z,80.55
2022-10-10T15:51:27.967Z,80.42
2022-10-10T15:54:40.086Z,80.32
2022-10-10T15:57:52.350Z,82.05
2022-10-10T16:01:04.941Z,82.36
2022-10-10T16:04:18.547Z,83.03
2022-10-10T16:07:38.430Z,85.03
2022-10-10T16:10:48.707Z,86.21
2022-10-10T16:14:01.843Z,86.94
2022-10-10T16:17:13.689Z,88.18
2022-10-10T16:20:25.747Z,88.64
2022-10-10T16:23:38.297Z,88.76
2022-10-10T16:26:50.239Z,88.75
2022-10-10T16:30:03.300Z,90.38
2022-10-10T16:33:15.198Z,90.13
2022-10-10T16:36:30.265Z,90.81
2022-10-10T16:39:42.678Z,91.50
2022-10-10T16:42:54.475Z,91.89
2022-10-10T16:46:11.508Z,92.44
2022-10-10T16:49:23.154Z,93.01
2022-10-10T16:52:37.480Z,93.76
2022-10-10T16:55:50.129Z,94.45
2022-10-10T16:59:03.634Z,94.76
2022-10-10T17:02:18.053Z,95.36
2022-10-10T17:05:30.455Z,96.35
2022-10-10T17:08:43.027Z,97.90
2022-10-10T17:11:55.175Z,98.82
2022-10-10T17:15:07.093Z,99.78
2022-10-10T17:18:19.409Z,99.81
2022-10-10T17:21:32.309Z,100.00
2022-10-10T17:24:44.550Z,100.00
2022-10-10T17:27:56.462Z,100.00
2022-10-10T17:31:15.017Z,100.00
2022-10-10T17:34:27.057Z,100.00
2022-10-10T17:37:38.855Z,100.00
2022-10-10T17:40:52.742Z,100.00
2022-10-10T17:44:05.728Z,100.00
2022-10-10T17:47:17.558Z,100.00
2022-10-10T17:50:29.680Z,100.00
2022-10-10T17:53:42.245Z,100.00
2022-10-10T17:56:54.052Z,100.00
2022-10-10T18:00:06.246Z,100.00
2022-10-10T18:03:19.878Z,100.00
2022-10-10T18:06:32.883Z,100.00
2022-10-10T18:09:44.746Z,100.00
2022-10-10T18:12:56.554Z,100.00
2022-10-10T18:16:18.390Z,100.00
2022-10-10T18:19:30.528Z,100.00
2022-10-10T18:22:42.580Z,100.00
2022-10-10T18:25:54.367Z,100.00
2022-10-10T18:29:06.615Z,100.00
2022-10-10T18:32:18.409Z,100.00
2022-10-10T18:35:30.305Z,100.00
2022-10-10T18:38:42.692Z,100.00
2022-10-10T18:41:54.700Z,100.00
2022-10-10T18:45:06.779Z,100.00
2022-10-10T18:48:18.643Z,100.00
2022-10-10T18:51:33.674Z,100.00
2022-10-10T18:54:47.554Z,100.00
2022-10-10T18:57:59.285Z,100.00
2022-10-10T19:01:14.690Z,100.00
2022-10-10T19:04:27.223Z,100.00
2022-10-10T19:07:39.107Z,100.00
2022-10-10T19:10:54.707Z,100.00
2022-10-10T19:14:10.773Z,100.00
2022-10-10T19:17:22.582Z,100.00
2022-10-10T19:20:34.711Z,100.00
2022-10-10T19:23:47.262Z,100.00
2022-10-10T19:27:01.530Z,100.00
2022-10-10T19:30:17.576Z,100.00
2022-10-10T19:33:29.453Z,100.00
2022-10-10T19:36:42.484Z,100.00
2022-10-10T19:39:54.267Z,100.00
2022-10-10T19:43:06.637Z,100.00
2022-10-10T19:46:21.928Z,100.00
2022-10-10T19:49:34.015Z,100.00
2022-10-10T19:52:46.018Z,100.00
2022-10-10T19:56:07.839Z,100.00
2022-10-10T19:59:19.744Z,100.00
2022-10-10T20:02:31.475Z,100.00
2022-10-10T20:05:43.398Z,100.00
2022-10-10T20:08:56.079Z,100.00
2022-10-10T20:12:07.986Z,100.00
2022-10-10T20:15:20.505Z,100.00
2022-10-10T20:18:32.410Z,100.00
2022-10-10T20:21:44.490Z,100.00
2022-10-10T20:24:56.618Z,100.00
2022-10-10T20:28:08.983Z,100.00
2022-10-10T20:31:24.782Z,100.00
2022-10-10T20:34:36.711Z,100.00
2022-10-10T20:37:48.492Z,100.00
2022-10-10T20:41:00.322Z,100.00
2022-10-10T20:44:15.900Z,100.00
2022-10-10T20:47:28.002Z,100.00
2022-10-10T20:50:41.736Z,100.00
2022-10-10T20:53:57.666Z,100.00
2022-10-10T20:57:09.814Z,100.00
2022-10-10T21:00:23.790Z,100.00
2022-10-10T21:03:37.235Z,100.00
2022-10-10T21:06:49.661Z,100.00
2022-10-10T21:10:01.527Z,100.00
2022-10-10T21:13:13.901Z,100.00
2022-10-10T21:16:26.906Z,100.00
2022-10-10T21:19:38.852Z,100.00
2022-10-10T21:22:50.624Z,100.00
2022-10-10T21:26:02.790Z,100.00
2022-10-10T21:29:15.582Z,100.00
2022-10-10T21:32:27.437Z,100.00
2022-10-10T21:35:41.341Z,100.00
2022-10-10T21:38:53.488Z,100.00
2022-10-10T21:42:05.345Z,100.00
2022-10-10T21:45:18.429Z,100.00
2022-10-10T21:48:30.204Z,100.00
2022-10-10T21:51:45.898Z,100.00
2022-10-10T21:54:58.320Z,100.00
2022-10-10T21:58:10.027Z,100.00
2022-10-10T22:01:25.203Z,100.00
2022-10-10T22:08:13.247Z,100.00
2022-10-10T22:11:29.273Z,100.00
2022-10-10T22:14:41.123Z,100.00
2022-10-10T22:17:53.170Z,100.00
2022-10-10T22:21:07.648Z,100.00
2022-10-10T22:24:19.632Z,100.00
2022-10-10T22:27:31.502Z,100.00
2022-10-10T22:30:43.383Z,100.00
2022-10-10T22:33:55.346Z,100.00
2022-10-10T22:37:07.163Z,100.00
2022-10-10T22:40:22.290Z,100.00
2022-10-10T22:43:34.077Z,100.00
2022-10-10T22:46:46.645Z,100.00
2022-10-10T22:49:58.547Z,100.00
2022-10-10T22:53:10.461Z,100.00
2022-10-10T22:56:25.284Z,100.00
2022-10-10T22:59:37.257Z,100.00
2022-10-10T23:02:49.280Z,100.00
2022-10-10T23:06:01.303Z,100.00
2022-10-10T23:09:13.620Z,100.00
2022-10-10T23:12:25.496Z,100.00
2022-10-10T23:15:39.111Z,100.00
2022-10-10T23:18:51.192Z,100.00
2022-10-10T23:22:03.700Z,100.00
2022-10-10T23:25:16.369Z,100.00
2022-10-10T23:28:28.623Z,100.00
2022-10-10T23:31:40.403Z,100.00
2022-10-10T23:34:52.269Z,100.00
2022-10-10T23:38:04.055Z,100.00
2022-10-10T23:41:17.579Z,100.00
2022-10-10T23:44:29.742Z,100.00
2022-10-10T23:47:41.456Z,100.00
2022-10-10T23:50:53.323Z,100.00
2022-10-10T23:54:05.073Z,100.00
2022-10-10T23:57:16.921Z,100.00
